About us.

The association.

TheFly&Fun association aims at promoting aeronautical activity and the preservation of aerial heritage by offering its members activities in and around old military and civilian aircraft, thanks to their collection of material and the collective knowledge of aviation enthusiasts.

The camaraderie, the passion for aviation & the high spirits animate us every single day.

Anecdote.

Its president, Michel Soutiran, was the first pilot to fly an L39 in France more than 20 years ago, and actively participated in its development and usage! Accompanied by his chief pilot, Aymeric de Valence, and other active members, they are committed to preserving and maintaining this aeronautical heritage.

Michel Soutiran.

The base.

Based at the Reims-Prunay airfield, Fly&Fun and its members take advantage of the Champagne region to fly in an exceptional setting and share this common enthusiasm for aeronautics.

OPEN GOOGLE MAPS
METAR:

LFQA 122100Z AUTO 11004KT CAVOK 18/08 Q1014


live view of the airfield
invoicing legal Notice privacy policy
Cochet Concept
cx